Time;durP1;ratioP1;P1;durP2;ratioP2;P2;SDS_P1;SDS_P2;PMS_P1;PMS_P2;Temp;Humidity;BMP_temperature;BMP_pressure;BME280_temperature;BME280_humidity;BME280_pressure;Samples;Min_cycle;Max_cycle;Signal;HPM_P1;HPM_P2
2022/11/26 00:02:25;;;;;;;118.37;54.05;;;;;;;1.15;79.08;102015.55;1653719;83;21050;-85
2022/11/26 00:04:52;;;;;;;121.45;55.23;;;;;;;1.18;79.04;102016.58;1651524;84;21130;-85
2022/11/26 00:07:24;;;;;;;129.70;58.50;;;;;;;1.16;78.96;102019.03;1651586;84;22808;-85
2022/11/26 00:09:52;;;;;;;141.53;66.75;;;;;;;1.17;79.04;102016.97;1666654;84;21019;-85
2022/11/26 00:12:22;;;;;;;122.20;60.73;;;;;;;1.16;79.02;102018.67;1621984;84;22187;-85
2022/11/26 00:14:49;;;;;;;115.32;56.42;;;;;;;1.18;79.10;102021.36;1626149;87;21900;-86
2022/11/26 00:17:15;;;;;;;111.90;51.77;;;;;;;1.22;79.12;102023.46;1623305;86;21117;-85
2022/11/26 00:19:43;;;;;;;105.40;50.55;;;;;;;1.23;79.15;102026.55;1623961;86;22979;-85
2022/11/26 00:22:23;;;;;;;99.58;49.65;;;;;;;1.24;79.12;102027.08;1638181;84;21229;-85
2022/11/26 00:24:50;;;;;;;93.27;47.65;;;;;;;1.27;79.10;102032.91;1644397;84;21048;-85
2022/11/26 00:27:17;;;;;;;98.37;49.08;;;;;;;1.29;79.19;102029.64;1655520;84;21009;-85
2022/11/26 00:29:43;;;;;;;93.47;47.33;;;;;;;1.28;79.11;102026.55;1651595;84;21940;-85
2022/11/26 00:32:19;;;;;;;97.88;49.45;;;;;;;1.26;79.05;102027.18;1643134;84;21762;-85
2022/11/26 00:34:46;;;;;;;99.00;51.15;;;;;;;1.23;79.02;102033.03;1635709;84;21057;-85
2022/11/26 00:37:21;;;;;;;96.70;48.23;;;;;;;1.22;79.15;102033.83;1648337;85;21050;-85
2022/11/26 00:39:47;;;;;;;96.30;48.25;;;;;;;1.25;79.24;102029.28;1637842;84;21063;-85
2022/11/26 00:42:14;;;;;;;97.15;49.83;;;;;;;1.30;79.32;102033.17;1642105;84;21884;-85
2022/11/26 00:44:41;;;;;;;96.37;50.73;;;;;;;1.27;79.27;102029.02;1658146;84;21803;-85
2022/11/26 00:47:09;;;;;;;104.50;51.80;;;;;;;1.33;79.26;102035.62;1635706;86;21014;-85
2022/11/26 00:49:36;;;;;;;107.10;52.20;;;;;;;1.33;79.23;102031.73;1628485;87;21092;-85
2022/11/26 00:52:04;;;;;;;103.35;50.43;;;;;;;1.32;79.26;102036.39;1631002;87;20985;-85
2022/11/26 00:54:30;;;;;;;106.07;53.35;;;;;;;1.34;79.29;102038.72;1630295;86;21053;-85
2022/11/26 00:56:57;;;;;;;109.30;52.13;;;;;;;1.37;79.34;102036.80;1632830;86;21753;-85
2022/11/26 00:59:24;;;;;;;105.25;47.83;;;;;;;1.37;79.32;102030.30;1628181;87;21039;-85
2022/11/26 01:01:51;;;;;;;100.97;47.40;;;;;;;1.41;79.35;102035.33;1632433;86;21043;-85
2022/11/26 01:04:17;;;;;;;107.70;52.67;;;;;;;1.45;79.42;102034.83;1630218;87;21114;-84
2022/11/26 01:06:44;;;;;;;114.03;51.23;;;;;;;1.46;79.40;102037.52;1630323;87;20994;-85
2022/11/26 01:09:19;;;;;;;97.95;46.30;;;;;;;1.52;79.42;102038.41;1628025;86;22836;-85
2022/11/26 01:11:45;;;;;;;98.05;49.80;;;;;;;1.57;79.41;102044.00;1632132;86;21039;-85
2022/11/26 01:14:16;;;;;;;98.45;47.98;;;;;;;1.58;79.48;102037.64;1634429;87;21045;-86
2022/11/26 01:16:43;;;;;;;105.25;49.58;;;;;;;1.62;79.41;102037.50;1628468;87;21593;-86
2022/11/26 01:19:11;;;;;;;97.95;47.50;;;;;;;1.61;79.34;102035.28;1625951;86;21056;-85
2022/11/26 01:21:38;;;;;;;99.87;49.53;;;;;;;1.61;79.32;102035.67;1620823;86;21776;-86
2022/11/26 01:24:05;;;;;;;96.15;47.70;;;;;;;1.60;79.31;102037.37;1630339;86;21572;-86
2022/11/26 01:26:39;;;;;;;99.00;49.23;;;;;;;1.62;79.34;102038.80;1630916;87;21013;-85
2022/11/26 01:29:05;;;;;;;96.35;47.05;;;;;;;1.59;79.14;102037.24;1633616;87;21900;-86
2022/11/26 01:31:32;;;;;;;100.67;48.45;;;;;;;1.57;79.15;102033.62;1629993;87;21068;-85
2022/11/26 01:33:59;;;;;;;99.72;46.85;;;;;;;1.58;79.19;102040.60;1636648;87;21755;-85
2022/11/26 01:36:30;;;;;;;99.40;46.23;;;;;;;1.59;79.22;102043.33;1630326;86;21905;-85
2022/11/26 01:39:00;;;;;;;98.05;47.30;;;;;;;1.55;79.09;102038.28;1631609;87;21096;-85
2022/11/26 01:41:57;;;;;;;94.70;46.77;;;;;;;1.55;79.10;102042.57;1633196;87;21026;-85
2022/11/26 01:44:28;;;;;;;94.85;45.70;;;;;;;1.57;79.20;102045.30;1630419;86;21063;-85
2022/11/26 01:46:55;;;;;;;96.05;45.90;;;;;;;1.61;79.30;102050.84;1627610;87;22947;-85
2022/11/26 01:49:29;;;;;;;90.38;45.90;;;;;;;1.67;79.40;102053.97;1626773;87;21557;-85
2022/11/26 01:52:12;;;;;;;94.47;44.95;;;;;;;1.71;79.32;102052.13;1630697;87;21089;-86
2022/11/26 01:54:40;;;;;;;94.03;45.23;;;;;;;1.73;79.23;102057.05;1627733;87;21149;-85
2022/11/26 01:57:16;;;;;;;89.05;44.53;;;;;;;1.73;79.07;102058.75;1630257;87;21094;-85
2022/11/26 01:59:45;;;;;;;83.47;42.13;;;;;;;1.78;79.32;102062.61;1608173;87;21920;-86
2022/11/26 02:02:12;;;;;;;93.27;45.75;;;;;;;1.78;79.12;102062.61;1630703;86;21127;-85
2022/11/26 02:04:46;;;;;;;102.72;48.17;;;;;;;1.78;79.13;102062.61;1626990;87;21488;-85
2022/11/26 02:07:12;;;;;;;99.20;47.55;;;;;;;1.79;79.17;102066.13;1628788;87;21068;-85
2022/11/26 02:09:39;;;;;;;106.50;49.42;;;;;;;1.81;79.20;102065.47;1632309;85;21081;-85
2022/11/26 02:12:06;;;;;;;112.60;51.35;;;;;;;1.82;79.21;102063.40;1630103;87;21689;-85
2022/11/26 02:14:41;;;;;;;106.85;51.88;;;;;;;1.81;79.23;102056.38;1629833;87;22183;-86
2022/11/26 02:17:40;;;;;;;118.82;54.58;;;;;;;1.84;79.13;102067.02;1629087;87;21928;-85
2022/11/26 02:20:49;;;;;;;107.85;51.00;;;;;;;1.85;79.12;102066.63;1633123;87;21646;-86
2022/11/26 02:23:43;;;;;;;111.03;51.02;;;;;;;1.87;79.13;102076.73;1632721;86;21029;-85
2022/11/26 02:26:36;;;;;;;110.37;52.60;;;;;;;1.87;79.05;102072.84;1626620;87;22594;-85
2022/11/26 02:29:23;;;;;;;127.58;57.98;;;;;;;1.88;79.14;102075.97;1622392;87;21099;-86
2022/11/26 02:32:07;;;;;;;113.77;52.83;;;;;;;1.91;79.10;102077.09;1618442;86;21086;-87
2022/11/26 02:35:02;;;;;;;;;;;;;;;1.91;79.14;102074.50;1623361;87;21105;-87
2022/11/26 02:37:38;;;;;;;120.60;56.23;;;;;;;1.94;79.13;102073.86;1629337;86;20200;-86
2022/11/26 02:40:07;;;;;;;129.68;57.08;;;;;;;1.94;79.08;102071.27;1579408;89;21884;-86
2022/11/26 02:42:34;;;;;;;131.18;59.77;;;;;;;1.93;79.03;102073.33;1603940;88;21134;-86
2022/11/26 02:45:09;;;;;;;143.65;62.62;;;;;;;1.90;79.01;102069.21;1598964;87;21055;-86
2022/11/26 02:47:37;;;;;;;138.88;59.27;;;;;;;1.91;79.10;102072.30;1669029;85;21801;-86
2022/11/26 02:50:08;;;;;;;143.65;62.40;;;;;;;1.92;79.15;102068.53;1661915;85;21141;-87
2022/11/26 02:52:34;;;;;;;128.35;59.55;;;;;;;1.88;79.01;102068.18;1642674;85;21784;-84
2022/11/26 02:55:01;;;;;;;140.75;59.85;;;;;;;1.88;79.08;102069.08;1666092;84;21584;-86
2022/11/26 02:57:29;;;;;;;130.70;57.53;;;;;;;1.89;79.11;102071.27;1662323;85;21157;-85
2022/11/26 02:59:56;;;;;;;130.93;59.20;;;;;;;1.91;79.12;102074.50;1668803;85;21048;-85
2022/11/26 03:02:34;;;;;;;134.18;58.23;;;;;;;1.94;79.17;102075.16;1642129;85;21158;-85
2022/11/26 03:05:01;;;;;;;144.50;59.75;;;;;;;1.94;79.18;102073.46;1659774;84;23273;-84
2022/11/26 03:07:30;;;;;;;136.50;57.17;;;;;;;1.99;79.24;102077.75;1663909;85;21091;-84
2022/11/26 03:09:59;;;;;;;133.07;58.30;;;;;;;2.03;79.19;102085.39;1669810;85;21044;-84
2022/11/26 03:12:26;;;;;;;129.93;56.65;;;;;;;2.03;79.11;102077.20;1670524;85;21884;-85
2022/11/26 03:14:52;;;;;;;130.95;57.90;;;;;;;2.04;79.14;102086.79;1661578;85;21091;-84
2022/11/26 03:17:19;;;;;;;125.42;56.33;;;;;;;2.07;79.13;102093.94;1669776;85;21680;-84
2022/11/26 03:19:46;;;;;;;122.05;54.53;;;;;;;2.06;79.04;102089.52;1671214;85;21598;-85
2022/11/26 03:22:13;;;;;;;122.85;56.77;;;;;;;2.05;79.07;102084.72;1662903;85;21013;-84
2022/11/26 03:24:40;;;;;;;129.40;56.00;;;;;;;2.06;79.11;102094.31;1661456;85;21004;-85
2022/11/26 03:27:06;;;;;;;126.07;56.30;;;;;;;2.05;79.03;102095.52;1661680;85;20964;-85
2022/11/26 03:29:33;;;;;;;118.45;54.08;;;;;;;2.07;79.13;102091.34;1665167;85;21729;-85
2022/11/26 03:32:00;;;;;;;124.95;54.35;;;;;;;2.07;79.05;102099.14;1661224;84;21538;-85
2022/11/26 03:34:26;;;;;;;132.10;56.75;;;;;;;2.09;79.09;102101.06;1666373;85;20981;-84
2022/11/26 03:36:53;;;;;;;117.05;54.55;;;;;;;2.09;79.01;102101.47;1673932;85;21009;-84
2022/11/26 03:39:20;;;;;;;113.17;51.90;;;;;;;2.11;79.13;102106.39;1669747;85;21042;-84
2022/11/26 03:41:46;;;;;;;121.72;54.73;;;;;;;2.13;79.14;102104.42;1660472;85;21872;-84
2022/11/26 03:44:13;;;;;;;122.45;53.92;;;;;;;2.17;79.17;102108.58;1663743;85;21034;-84
2022/11/26 03:46:40;;;;;;;117.95;55.28;;;;;;;2.18;79.10;102113.90;1677284;83;20965;-84
2022/11/26 03:49:07;;;;;;;120.95;54.18;;;;;;;2.19;79.06;102111.80;1683411;83;21020;-84
2022/11/26 03:51:33;;;;;;;123.20;53.15;;;;;;;2.21;79.08;102114.13;1665274;83;20934;-84
2022/11/26 03:54:00;;;;;;;120.75;54.20;;;;;;;2.21;79.02;102112.83;1663444;85;21791;-84
2022/11/26 03:56:27;;;;;;;116.45;52.78;;;;;;;2.23;79.08;102113.85;1679169;82;20976;-84
2022/11/26 03:58:53;;;;;;;120.30;53.35;;;;;;;2.26;79.11;102115.81;1693430;83;21456;-85
2022/11/26 04:01:20;;;;;;;117.47;52.15;;;;;;;2.04;79.08;102075.10;1683729;83;21609;-85
2022/11/26 04:03:47;;;;;;;116.50;51.95;;;;;;;2.28;79.07;102118.14;1679476;83;21454;-85
2022/11/26 04:06:13;;;;;;;122.33;54.58;;;;;;;2.27;79.15;102118.54;1683856;83;21723;-84
2022/11/26 04:08:40;;;;;;;119.35;52.95;;;;;;;2.29;79.17;102110.84;1681900;83;21121;-85
2022/11/26 04:11:07;;;;;;;121.02;53.75;;;;;;;2.29;79.16;102113.07;1680867;83;21454;-85
2022/11/26 04:13:34;;;;;;;122.10;56.35;;;;;;;2.27;79.09;102115.01;1684422;83;21035;-85
2022/11/26 04:16:00;;;;;;;132.95;55.63;;;;;;;2.28;79.16;102114.24;1668106;84;20962;-85
2022/11/26 04:18:27;;;;;;;121.65;55.55;;;;;;;2.27;79.10;102125.03;1676419;83;21692;-85
2022/11/26 04:20:53;;;;;;;121.00;55.00;;;;;;;2.24;79.09;102128.67;1683042;83;21001;-85
2022/11/26 04:23:20;;;;;;;116.70;53.98;;;;;;;2.24;79.11;102130.38;1687547;83;21491;-84
2022/11/26 04:25:47;;;;;;;116.05;53.20;;;;;;;2.25;79.19;102133.10;1686625;83;21037;-85
2022/11/26 04:28:14;;;;;;;119.72;53.25;;;;;;;2.28;79.28;102142.42;1690184;83;21003;-85
2022/11/26 04:30:41;;;;;;;104.72;50.08;;;;;;;2.26;79.11;102146.98;1683787;83;21752;-85
2022/11/26 04:33:08;;;;;;;114.67;49.80;;;;;;;2.25;79.10;102143.86;1683353;83;20992;-85
2022/11/26 04:35:34;;;;;;;114.05;51.88;;;;;;;2.24;79.11;102149.86;1684509;82;20969;-85
2022/11/26 04:38:01;;;;;;;104.90;48.80;;;;;;;2.25;79.24;102143.49;1691523;83;21032;-85
2022/11/26 04:40:28;;;;;;;111.15;52.05;;;;;;;2.28;79.27;102145.42;1689525;83;21031;-84
2022/11/26 04:42:55;;;;;;;116.08;51.42;;;;;;;2.28;79.20;102148.02;1692354;83;21733;-85
2022/11/26 04:45:21;;;;;;;115.30;52.38;;;;;;;2.25;79.15;102143.86;1686136;83;21095;-85
2022/11/26 04:47:48;;;;;;;114.03;53.15;;;;;;;2.24;79.17;102144.26;1677901;83;21072;-85
2022/11/26 04:50:15;;;;;;;117.22;53.90;;;;;;;2.21;79.16;102144.40;1665243;83;21044;-85
2022/11/26 04:52:41;;;;;;;107.72;53.30;;;;;;;2.20;79.20;102150.40;1673580;83;21116;-86
2022/11/26 04:55:09;;;;;;;111.62;54.23;;;;;;;2.21;79.27;102150.89;1675351;83;22995;-85
2022/11/26 04:57:35;;;;;;;115.40;53.00;;;;;;;2.20;79.21;102155.19;1681581;83;21109;-85
2022/11/26 05:00:03;;;;;;;112.47;51.35;;;;;;;2.19;79.22;102151.16;1673652;83;21993;-85
2022/11/26 05:02:30;;;;;;;111.40;52.85;;;;;;;2.20;79.34;102153.00;1664319;83;21090;-85
2022/11/26 05:04:57;;;;;;;116.75;52.90;;;;;;;2.25;79.44;102154.25;1666217;83;22051;-85
2022/11/26 05:07:23;;;;;;;113.68;52.65;;;;;;;2.27;79.43;102155.28;1680135;83;22123;-84
2022/11/26 05:09:50;;;;;;;107.15;51.50;;;;;;;2.29;79.42;102158.91;1671997;83;21873;-85
2022/11/26 05:12:17;;;;;;;112.80;52.35;;;;;;;2.32;79.46;102163.96;1673681;83;21008;-84
2022/11/26 05:14:44;;;;;;;113.08;52.23;;;;;;;2.33;79.35;102165.80;1675196;83;22445;-84
2022/11/26 05:17:10;;;;;;;103.47;48.70;;;;;;;2.35;79.42;102168.52;1686796;83;21064;-84
2022/11/26 05:19:37;;;;;;;100.00;48.45;;;;;;;2.39;79.39;102174.88;1673314;83;21864;-84
2022/11/26 05:22:04;;;;;;;104.72;50.38;;;;;;;2.42;79.40;102169.53;1680997;83;21019;-84
2022/11/26 05:24:30;;;;;;;101.62;49.98;;;;;;;2.44;79.43;102164.06;1685273;83;21028;-84
2022/11/26 05:26:57;;;;;;;105.43;51.25;;;;;;;2.44;79.26;102170.93;1679201;83;21517;-84
2022/11/26 05:29:24;;;;;;;109.67;52.98;;;;;;;2.45;79.37;102169.77;1680505;83;21773;-84
2022/11/26 05:31:51;;;;;;;107.17;52.75;;;;;;;2.45;79.29;102174.06;1682084;83;22597;-84
2022/11/26 05:34:18;;;;;;;111.45;51.88;;;;;;;2.44;79.28;102172.23;1676971;83;21447;-84
2022/11/26 05:36:45;;;;;;;111.37;52.00;;;;;;;2.44;79.33;102176.13;1676927;83;21060;-83
2022/11/26 05:39:11;;;;;;;111.60;52.55;;;;;;;2.45;79.33;102181.86;1678015;83;21915;-83
2022/11/26 05:41:38;;;;;;;107.25;52.73;;;;;;;2.44;79.37;102182.27;1685417;83;20992;-88
2022/11/26 05:44:05;;;;;;;113.60;52.03;;;;;;;2.46;79.38;102184.59;1664828;83;22436;-90
2022/11/26 05:46:32;;;;;;;105.72;51.48;;;;;;;2.48;79.30;102180.81;1664810;83;20992;-88
2022/11/26 05:48:58;;;;;;;101.72;50.52;;;;;;;2.51;79.44;102181.94;1664398;84;21100;-89
2022/11/26 05:51:25;;;;;;;105.50;51.28;;;;;;;2.52;79.29;102186.37;1656777;84;21534;-88
2022/11/26 05:53:52;;;;;;;99.37;49.73;;;;;;;2.50;79.19;102190.95;1629226;86;20914;-88
2022/11/26 05:56:19;;;;;;;97.37;48.42;;;;;;;2.48;79.29;102192.11;1604011;87;21695;-88
2022/11/26 05:58:45;;;;;;;103.55;48.33;;;;;;;2.51;79.33;102187.14;1661291;84;21142;-88
2022/11/26 06:01:12;;;;;;;106.90;48.23;;;;;;;2.54;79.37;102193.00;1631559;86;21144;-88
2022/11/26 06:03:39;;;;;;;101.45;48.92;;;;;;;2.56;79.37;102196.63;1600264;86;21091;-89
2022/11/26 06:06:06;;;;;;;94.95;47.33;;;;;;;2.58;79.42;102202.85;1604044;86;21293;-87
2022/11/26 06:08:33;;;;;;;101.90;48.87;;;;;;;2.57;79.35;102209.22;1601754;86;21768;-89
2022/11/26 06:11:00;;;;;;;103.62;47.83;;;;;;;2.57;79.35;102211.42;1655778;84;21081;-89
2022/11/26 06:13:26;;;;;;;102.97;50.08;;;;;;;2.58;79.43;102217.15;1638976;84;21086;-88
2022/11/26 06:15:53;;;;;;;97.10;48.20;;;;;;;2.63;79.56;102223.64;1624474;87;21153;-89
2022/11/26 06:18:20;;;;;;;87.20;46.20;;;;;;;2.66;79.47;102226.86;1656265;84;21033;-89
2022/11/26 06:20:47;;;;;;;87.33;45.60;;;;;;;2.64;79.38;102231.03;1662029;84;21776;-89
2022/11/26 06:23:14;;;;;;;88.90;45.95;;;;;;;2.65;79.35;102237.66;1623511;84;21082;-89
2022/11/26 06:25:41;;;;;;;86.20;47.38;;;;;;;2.65;79.37;102236.77;1626159;84;20974;-89
2022/11/26 06:28:07;;;;;;;95.80;49.30;;;;;;;2.65;79.34;102228.56;1657244;84;21596;-89
2022/11/26 06:30:34;;;;;;;111.77;55.60;;;;;;;2.66;79.32;102234.26;1655891;84;21012;-90
2022/11/26 06:33:01;;;;;;;101.07;53.13;;;;;;;2.67;79.33;102233.89;1653060;84;21763;-92
2022/11/26 06:35:28;;;;;;;109.15;58.60;;;;;;;2.70;79.37;102238.02;1646916;84;21095;-92
2022/11/26 06:37:54;;;;;;;106.05;56.40;;;;;;;2.70;79.31;102240.62;1643038;84;21092;-92
2022/11/26 06:40:21;;;;;;;93.85;51.13;;;;;;;2.71;79.38;102236.84;1644814;84;21142;-89
2022/11/26 06:42:50;;;;;;;87.82;47.93;;;;;;;2.75;79.30;102238.41;1654521;84;21012;-90
2022/11/26 06:45:17;;;;;;;78.45;43.58;;;;;;;2.71;79.16;102245.95;1651178;84;21977;-88
2022/11/26 06:47:46;;;;;;;71.47;41.95;;;;;;;2.66;79.10;102242.06;1664549;84;21126;-89
2022/11/26 06:50:14;;;;;;;73.37;40.08;;;;;;;2.65;79.34;102244.56;1670529;84;21130;-89
2022/11/26 06:52:41;;;;;;;73.90;40.92;;;;;;;2.69;79.48;102245.32;1654160;84;21165;-89
2022/11/26 06:55:08;;;;;;;72.35;39.83;;;;;;;2.70;79.40;102249.72;1648622;84;21077;-89
2022/11/26 06:57:35;;;;;;;78.10;41.40;;;;;;;2.70;79.40;102254.92;1646986;84;21848;-89
2022/11/26 07:00:03;;;;;;;74.27;41.18;;;;;;;2.73;79.68;102252.17;1642188;84;21517;-89
2022/11/26 07:02:30;;;;;;;74.92;40.60;;;;;;;2.81;79.62;102256.69;1655787;84;21139;-89
2022/11/26 07:04:57;;;;;;;71.15;38.55;;;;;;;2.85;79.64;102261.75;1646826;84;21091;-89
2022/11/26 07:07:24;;;;;;;69.25;39.35;;;;;;;2.88;79.51;102262.01;1652107;84;22142;-89
2022/11/26 07:09:51;;;;;;;92.17;49.80;;;;;;;2.90;79.49;102269.13;1655912;84;21767;-89
2022/11/26 07:12:20;;;;;;;98.00;53.95;;;;;;;2.94;79.42;102261.59;1644823;84;21077;-89
2022/11/26 07:14:47;;;;;;;146.93;79.12;;;;;;;2.98;79.44;102268.45;1644987;84;21135;-88
2022/11/26 07:17:14;;;;;;;125.10;67.50;;;;;;;3.00;79.33;102268.58;1640968;84;21087;-89
2022/11/26 07:19:40;;;;;;;99.03;57.40;;;;;;;2.98;79.25;102271.05;1652618;84;21135;-89
2022/11/26 07:22:07;;;;;;;105.00;56.55;;;;;;;2.98;79.20;102268.84;1653826;84;22523;-89
2022/11/26 07:24:34;;;;;;;101.30;58.17;;;;;;;2.96;79.22;102271.72;1654508;84;21066;-86
2022/11/26 07:27:02;;;;;;;107.30;60.15;;;;;;;2.97;79.26;102274.45;1663406;84;21060;-86
2022/11/26 07:29:30;;;;;;;108.78;59.18;;;;;;;2.99;79.33;102270.27;1656633;84;21759;-86
2022/11/26 07:31:58;;;;;;;103.12;57.90;;;;;;;2.99;79.25;102268.98;1658622;84;21091;-85
2022/11/26 07:34:27;;;;;;;96.17;52.25;;;;;;;2.98;79.21;102273.64;1661931;84;22103;-90
2022/11/26 07:36:54;;;;;;;100.80;52.95;;;;;;;2.95;79.18;102270.83;1645867;84;21275;-91
2022/11/26 07:39:21;;;;;;;102.12;50.70;;;;;;;2.94;79.16;102274.59;1642084;84;21103;-91
2022/11/26 07:41:48;;;;;;;101.02;52.95;;;;;;;2.92;79.15;102287.07;1656609;84;21099;-91
2022/11/26 07:44:15;;;;;;;102.72;49.48;;;;;;;2.91;79.21;102280.07;1654599;84;21116;-94
2022/11/26 07:46:44;;;;;;;98.80;50.33;;;;;;;2.95;79.18;102289.40;1656281;84;22056;-91
2022/11/26 07:49:10;;;;;;;98.52;48.83;;;;;;;2.96;79.17;102288.63;1656228;83;21366;-92
2022/11/26 07:51:38;;;;;;;92.70;46.63;;;;;;;3.01;79.28;102302.92;1670531;83;21083;-92
2022/11/26 07:54:08;;;;;;;97.90;49.08;;;;;;;3.04;79.18;102300.55;1656518;84;21045;-91
2022/11/26 07:56:35;;;;;;;93.90;50.30;;;;;;;3.05;79.17;102296.77;1664342;83;22276;-92
2022/11/26 07:59:02;;;;;;;95.70;52.43;;;;;;;3.04;79.07;102303.14;1675717;81;21746;-91
2022/11/26 08:01:28;;;;;;;103.35;49.45;;;;;;;3.03;79.11;102301.34;1683088;83;21114;-91
2022/11/26 08:03:57;;;;;;;104.75;55.85;;;;;;;3.05;79.15;102306.28;1670183;83;21039;-91
2022/11/26 08:06:27;;;;;;;106.22;56.45;;;;;;;3.08;79.21;102314.34;1680821;83;21114;-91
2022/11/26 08:08:54;;;;;;;124.85;65.20;;;;;;;3.11;79.22;102315.87;1681594;83;21095;-91
2022/11/26 08:11:23;;;;;;;136.72;75.08;;;;;;;3.15;79.15;102316.62;1640227;84;21976;-91
2022/11/26 08:13:56;;;;;;;136.47;74.47;;;;;;;3.12;78.91;102322.91;1684579;83;21156;-90
2022/11/26 08:16:23;;;;;;;142.55;76.12;;;;;;;3.12;79.07;102326.80;1681348;83;27228;-92
2022/11/26 08:18:54;;;;;;;139.05;73.35;;;;;;;3.16;79.20;102325.36;1679904;83;20995;-92
2022/11/26 08:21:21;;;;;;;131.18;70.72;;;;;;;3.20;79.16;102326.12;1684170;83;21059;-91
2022/11/26 08:23:48;;;;;;;122.10;64.40;;;;;;;3.23;79.15;102325.97;1688939;83;21712;-92
2022/11/26 08:26:15;;;;;;;124.45;62.75;;;;;;;3.27;79.15;102329.73;1678810;83;21005;-92
2022/11/26 08:28:44;;;;;;;116.88;60.95;;;;;;;3.28;79.06;102330.22;1662102;83;34513;-92
2022/11/26 08:31:12;;;;;;;119.10;60.45;;;;;;;3.31;79.14;102327.88;1673314;82;21039;-91
2022/11/26 08:33:39;;;;;;;129.47;63.78;;;;;;;3.38;79.20;102333.16;1686717;83;21823;-91
2022/11/26 08:36:07;;;;;;;136.47;67.53;;;;;;;3.42;79.16;102334.84;1681794;83;22547;-92
2022/11/26 08:38:33;;;;;;;146.80;67.80;;;;;;;3.48;79.13;102338.33;1671059;83;21032;-91
2022/11/26 08:41:04;;;;;;;146.43;69.35;;;;;;;3.32;79.03;102302.35;1673482;83;21000;-90
2022/11/26 08:43:31;;;;;;;142.03;68.95;;;;;;;3.52;79.04;102344.28;1675194;81;21525;-89
2022/11/26 08:45:58;;;;;;;135.25;71.25;;;;;;;3.54;79.04;102338.80;1659139;83;21042;-92
2022/11/26 08:48:27;;;;;;;126.15;64.53;;;;;;;3.59;79.09;102343.98;1657027;83;21691;-91
2022/11/26 08:51:01;;;;;;;119.33;64.60;;;;;;;3.63;79.09;102339.53;1654365;85;21080;-90
2022/11/26 08:53:28;;;;;;;120.55;62.43;;;;;;;3.70;79.10;102335.72;1642631;85;21015;-90
2022/11/26 08:56:02;;;;;;;110.72;57.65;;;;;;;3.76;79.05;102334.89;1659110;85;21169;-93
2022/11/26 08:58:31;;;;;;;105.40;55.98;;;;;;;3.81;79.01;102343.05;1664519;85;21092;-95
2022/11/26 09:00:58;;;;;;;101.78;54.60;;;;;;;3.86;79.00;102341.31;1648184;85;21717;-93
2022/11/26 09:03:26;;;;;;;93.27;52.33;;;;;;;3.93;78.94;102350.53;1653252;85;21071;-93
2022/11/26 09:05:52;;;;;;;100.00;56.13;;;;;;;3.96;78.83;102349.84;1656692;85;22007;-96
2022/11/26 09:08:19;;;;;;;112.00;58.38;;;;;;;3.97;78.73;102348.66;1656147;85;21547;-93
2022/11/26 09:10:54;;;;;;;111.45;58.95;;;;;;;3.99;78.68;102358.80;1654551;85;21975;-88
2022/11/26 09:13:21;;;;;;;106.95;58.92;;;;;;;4.02;78.64;102355.55;1643031;85;23033;-88
2022/11/26 09:15:49;;;;;;;104.35;59.60;;;;;;;3.98;78.36;102364.83;1656144;85;21183;-88
2022/11/26 09:18:16;;;;;;;107.32;58.75;;;;;;;3.92;78.37;102358.22;1634177;85;22014;-88
2022/11/26 09:20:43;;;;;;;103.62;61.65;;;;;;;3.93;78.56;102358.34;1642791;85;21076;-88
2022/11/26 09:23:10;;;;;;;105.72;62.05;;;;;;;3.96;78.63;102361.20;1615341;86;21063;-90
2022/11/26 09:25:40;;;;;;;115.28;68.12;;;;;;;4.00;78.59;102358.44;1610574;87;21752;-89
2022/11/26 09:28:07;;;;;;;108.72;63.30;;;;;;;3.99;78.55;102356.20;1606895;87;21103;-88
2022/11/26 09:30:34;;;;;;;102.30;59.95;;;;;;;4.02;78.65;102352.95;1648312;84;21094;-89
2022/11/26 09:33:00;;;;;;;92.00;55.40;;;;;;;4.08;78.50;102356.02;1608087;86;21157;-92
2022/11/26 09:35:27;;;;;;;88.45;53.35;;;;;;;4.12;78.47;102357.16;1572871;89;21160;-92
2022/11/26 09:37:54;;;;;;;84.97;52.15;;;;;;;4.16;78.45;102358.80;1598185;86;22967;-93
2022/11/26 09:40:21;;;;;;;82.00;50.00;;;;;;;4.22;78.44;102364.88;1637391;85;21071;-93
2022/11/26 09:42:59;;;;;;;85.90;53.60;;;;;;;4.33;78.54;102364.41;1643305;84;22049;-91
2022/11/26 09:45:43;;;;;;;90.32;54.70;;;;;;;4.44;78.69;102364.41;1645782;84;21425;-90
2022/11/26 09:48:14;;;;;;;90.90;55.25;;;;;;;4.45;78.30;102370.16;1624648;84;21321;-90
2022/11/26 09:50:41;;;;;;;84.67;52.65;;;;;;;4.46;78.39;102367.14;1639980;87;21886;-90
2022/11/26 09:53:18;;;;;;;86.60;52.05;;;;;;;4.45;78.45;102355.81;1621152;87;21075;-89
2022/11/26 09:55:52;;;;;;;86.12;51.65;;;;;;;4.64;78.45;102376.77;1627399;87;21099;-90
2022/11/26 09:58:55;;;;;;;89.20;53.87;;;;;;;4.72;78.42;102379.54;1622285;88;21079;-88
2022/11/26 10:01:22;;;;;;;95.20;53.95;;;;;;;4.80;78.40;102376.20;1621493;87;21105;-90
2022/11/26 10:03:49;;;;;;;93.37;57.20;;;;;;;4.90;78.34;102371.25;1626694;86;21706;-88
2022/11/26 10:06:56;;;;;;;98.30;62.67;;;;;;;4.99;78.37;102376.78;1659370;84;20972;-88
2022/11/26 10:09:57;;;;;;;100.85;63.83;;;;;;;5.07;78.21;102370.81;1633801;85;21070;-88
2022/11/26 10:12:29;;;;;;;116.67;67.17;;;;;;;5.12;78.06;102378.56;1622549;86;21392;-89
2022/11/26 10:15:17;;;;;;;97.62;60.58;;;;;;;5.16;78.03;102378.39;1684584;83;21079;-89
2022/11/26 10:18:41;;;;;;;94.60;60.55;;;;;;;5.14;77.65;102375.66;1686577;83;21725;-88
2022/11/26 10:21:39;;;;;;;87.72;50.67;;;;;;;5.10;77.46;102373.63;1684716;83;21028;-89
2022/11/26 10:24:27;;;;;;;98.22;59.88;;;;;;;5.08;77.35;102375.22;1686903;83;21484;-89
2022/11/26 10:26:54;;;;;;;91.87;59.27;;;;;;;5.10;77.51;102376.64;1681144;83;21162;-88
2022/11/26 10:29:24;;;;;;;78.30;50.58;;;;;;;5.15;77.60;102375.30;1679800;83;22181;-90
2022/11/26 10:32:01;;;;;;;67.53;42.90;;;;;;;5.24;77.73;102366.42;1682672;83;22456;-88
2022/11/26 10:34:41;;;;;;;69.55;43.05;;;;;;;5.36;77.71;102368.09;1660621;83;21055;-90
2022/11/26 10:37:08;;;;;;;70.92;43.87;;;;;;;5.39;77.51;102369.23;1681104;83;21095;-88
2022/11/26 10:39:35;;;;;;;75.08;44.25;;;;;;;5.43;77.45;102366.03;1679528;83;21154;-89
2022/11/26 10:42:12;;;;;;;61.30;38.67;;;;;;;5.51;77.49;102366.58;1684189;83;21107;-88
2022/11/26 10:44:40;;;;;;;127.58;65.57;;;;;;;5.58;77.38;102364.92;1681703;83;21762;-88
2022/11/26 10:47:29;;;;;;;89.32;53.45;;;;;;;5.67;77.16;102371.58;1682373;83;21508;-88
2022/11/26 10:50:08;;;;;;;75.22;47.45;;;;;;;5.68;77.01;102368.19;1671064;83;21134;-88
2022/11/26 10:52:35;;;;;;;71.82;45.48;;;;;;;5.70;76.94;102367.48;1650162;83;21101;-88
2022/11/26 10:55:22;;;;;;;62.70;45.00;;;;;;;5.71;76.96;102374.54;1661405;83;21763;-88
2022/11/26 10:57:56;;;;;;;140.65;88.72;;;;;;;5.70;76.69;102383.16;1673709;83;21615;-88
2022/11/26 11:00:51;;;;;;;108.72;70.08;;;;;;;5.68;76.71;102376.02;1666106;83;21148;-88
2022/11/26 11:03:28;;;;;;;143.95;92.22;;;;;;;5.68;76.76;102377.33;1674540;83;20965;-88
2022/11/26 11:06:21;;;;;;;98.35;69.50;;;;;;;5.63;76.68;102375.30;1672828;83;21919;-88
2022/11/26 11:08:50;;;;;;;77.37;53.98;;;;;;;5.61;76.67;102378.59;1628006;87;21166;-90
2022/11/26 11:11:29;;;;;;;67.47;45.33;;;;;;;5.60;76.76;102382.91;1627774;86;21810;-88
2022/11/26 11:13:55;;;;;;;66.00;43.38;;;;;;;5.59;76.73;102379.81;1632621;86;22251;-88
2022/11/26 11:16:30;;;;;;;51.73;34.65;;;;;;;5.59;76.69;102382.42;1635277;87;21663;-88
2022/11/26 11:18:59;;;;;;;59.15;40.88;;;;;;;5.60;76.72;102387.23;1626574;87;21094;-88
2022/11/26 11:21:34;;;;;;;51.00;33.25;;;;;;;5.64;76.89;102386.66;1632330;87;22542;-88
2022/11/26 11:24:20;;;;;;;59.03;44.40;;;;;;;5.68;76.83;102382.55;1610317;87;21808;-88
2022/11/26 11:26:49;;;;;;;79.85;58.40;;;;;;;5.73;76.93;102380.78;1628308;87;22808;-87